createdAt,value
2019-04-27T00:01:48.361Z,92.60
2019-04-27T00:04:27.741Z,92.60
2019-04-27T00:06:58.964Z,92.60
2019-04-27T00:09:31.058Z,92.50
2019-04-27T00:12:03.512Z,92.60
2019-04-27T00:14:28.635Z,92.60
2019-04-27T00:17:21.157Z,92.80
2019-04-27T00:19:49.806Z,92.70
2019-04-27T00:22:31.085Z,92.60
2019-04-27T00:24:58.012Z,92.30
2019-04-27T00:27:24.942Z,92.40
2019-04-27T00:29:53.437Z,92.30
2019-04-27T00:32:18.849Z,92.10
2019-04-27T00:34:45.787Z,92.10
2019-04-27T00:37:21.220Z,92.00
2019-04-27T00:39:59.309Z,92.20
2019-04-27T00:42:26.291Z,92.20
2019-04-27T00:44:54.200Z,92.20
2019-04-27T00:47:20.341Z,92.10
2019-04-27T00:49:47.302Z,92.20
2019-04-27T00:52:14.244Z,92.10
2019-04-27T00:54:41.181Z,91.90
2019-04-27T00:57:16.633Z,92.10
2019-04-27T01:00:07.246Z,92.10
2019-04-27T01:02:43.562Z,92.30
2019-04-27T01:05:16.021Z,92.10
2019-04-27T01:07:43.442Z,92.10
2019-04-27T01:10:09.988Z,92.00
2019-04-27T01:12:36.928Z,91.90
2019-04-27T01:15:04.098Z,92.40
2019-04-27T01:17:31.061Z,91.70
2019-04-27T01:19:59.531Z,91.80
2019-04-27T01:22:24.970Z,91.60
2019-04-27T01:24:52.550Z,91.70
2019-04-27T01:27:28.984Z,91.70
2019-04-27T01:29:55.841Z,91.70
2019-04-27T01:32:22.814Z,91.50
2019-04-27T01:34:49.773Z,91.50
2019-04-27T01:37:16.733Z,91.30
2019-04-27T01:39:43.673Z,91.10
2019-04-27T01:42:10.687Z,91.40
2019-04-27T01:44:39.255Z,91.10
2019-04-27T01:47:04.518Z,91.30
2019-04-27T01:49:33.006Z,91.90
2019-04-27T01:51:59.979Z,91.40
2019-04-27T01:54:26.933Z,91.50
2019-04-27T01:56:53.855Z,91.40
2019-04-27T01:59:20.827Z,91.40
2019-04-27T02:02:11.180Z,91.30
2019-04-27T02:04:50.677Z,91.50
2019-04-27T02:07:19.180Z,91.70
2019-04-27T02:09:44.559Z,91.50
2019-04-27T02:12:11.534Z,91.60
2019-04-27T02:14:38.989Z,91.40
2019-04-27T02:17:05.403Z,91.50
2019-04-27T02:19:32.384Z,91.50
2019-04-27T02:21:59.761Z,91.60
2019-04-27T02:24:26.268Z,91.40
2019-04-27T02:26:53.225Z,91.30
2019-04-27T02:29:29.065Z,91.60
2019-04-27T02:32:10.267Z,91.10
2019-04-27T02:34:42.718Z,91.20
2019-04-27T02:37:10.306Z,91.20
2019-04-27T02:39:36.638Z,91.20
2019-04-27T02:42:03.593Z,91.10
2019-04-27T02:44:35.725Z,91.10
2019-04-27T02:47:02.703Z,91.20
2019-04-27T02:49:30.477Z,91.20
2019-04-27T02:52:04.671Z,90.80
2019-04-27T02:54:31.620Z,91.30
2019-04-27T02:56:59.394Z,91.10
2019-04-27T02:59:25.494Z,91.50
2019-04-27T03:02:00.766Z,91.60
2019-04-27T03:04:25.975Z,91.50
2019-04-27T03:06:52.926Z,91.40
2019-04-27T03:09:20.695Z,91.40
2019-04-27T03:11:49.751Z,91.20
2019-04-27T03:14:29.656Z,91.30
2019-04-27T03:17:09.884Z,91.30
2019-04-27T03:19:40.027Z,91.40
2019-04-27T03:22:19.447Z,91.70
2019-04-27T03:24:50.500Z,91.60
2019-04-27T03:27:19.854Z,91.70
2019-04-27T03:29:44.377Z,91.60
2019-04-27T03:32:13.054Z,91.60
2019-04-27T03:34:41.886Z,91.50
2019-04-27T03:37:05.221Z,91.40
2019-04-27T03:39:32.779Z,91.50
2019-04-27T03:42:00.227Z,91.40
2019-04-27T03:44:26.024Z,91.40
2019-04-27T03:46:52.977Z,91.40
2019-04-27T03:49:31.887Z,91.50
2019-04-27T03:51:52.068Z,91.50
2019-04-27T03:54:32.716Z,91.50
2019-04-27T03:57:09.696Z,91.40
2019-04-27T03:59:55.383Z,91.50
2019-04-27T04:02:22.304Z,91.70
2019-04-27T04:04:50.723Z,91.70
2019-04-27T04:07:16.156Z,91.60
2019-04-27T04:09:43.096Z,91.40
2019-04-27T04:12:16.952Z,91.30
2019-04-27T04:14:43.883Z,91.90
2019-04-27T04:17:12.879Z,91.80
2019-04-27T04:19:51.098Z,91.40
2019-04-27T04:22:06.404Z,91.90
2019-04-27T04:24:33.313Z,92.00
2019-04-27T04:27:00.280Z,92.00
2019-04-27T04:29:27.203Z,92.00
2019-04-27T04:31:54.145Z,92.00
2019-04-27T04:34:21.089Z,91.90
2019-04-27T04:36:50.188Z,91.90
2019-04-27T04:39:14.965Z,92.00
2019-04-27T04:41:51.121Z,91.80
2019-04-27T04:44:22.876Z,91.90
2019-04-27T04:46:55.841Z,91.90
2019-04-27T04:49:22.790Z,91.90
2019-04-27T04:51:50.364Z,91.50
2019-04-27T04:54:16.664Z,91.80
2019-04-27T04:56:43.748Z,91.50
2019-04-27T04:59:10.668Z,91.80
2019-04-27T05:01:39.743Z,91.60
2019-04-27T05:04:04.579Z,91.60
2019-04-27T05:06:31.519Z,91.50
2019-04-27T05:08:59.482Z,91.10
2019-04-27T05:11:25.415Z,91.30
2019-04-27T05:13:52.331Z,91.30
2019-04-27T05:16:19.278Z,91.20
2019-04-27T05:18:46.203Z,90.90
2019-04-27T05:21:18.533Z,90.80
2019-04-27T05:23:44.987Z,90.40
2019-04-27T05:26:11.921Z,90.60
2019-04-27T05:28:40.849Z,90.40
2019-04-27T05:31:05.760Z,90.00
2019-04-27T05:33:32.683Z,89.80
2019-04-27T05:35:59.616Z,88.90
2019-04-27T05:38:26.561Z,88.00
2019-04-27T05:40:53.493Z,88.20
2019-04-27T05:43:21.548Z,87.90
2019-04-27T05:46:12.418Z,86.60
2019-04-27T05:48:38.898Z,85.90
2019-04-27T05:51:05.081Z,85.20
2019-04-27T05:53:32.008Z,85.90
2019-04-27T05:55:59.431Z,85.20
2019-04-27T05:58:26.316Z,85.00
2019-04-27T06:00:53.256Z,85.20
2019-04-27T06:03:21.075Z,84.90
2019-04-27T06:05:48.845Z,83.80
2019-04-27T06:08:14.044Z,82.70
2019-04-27T06:10:40.965Z,82.60
2019-04-27T06:13:08.452Z,82.30
2019-04-27T06:15:34.911Z,81.80
2019-04-27T06:18:01.836Z,81.00
2019-04-27T06:20:28.763Z,79.90
2019-04-27T06:22:55.715Z,80.50
2019-04-27T06:25:22.637Z,79.50
2019-04-27T06:27:49.638Z,79.30
2019-04-27T06:30:16.492Z,78.70
2019-04-27T06:32:43.412Z,80.00
2019-04-27T06:35:12.363Z,77.40
2019-04-27T06:37:38.879Z,77.10
2019-04-27T06:40:04.628Z,76.00
2019-04-27T06:42:31.544Z,76.10
2019-04-27T06:44:59.884Z,76.50
2019-04-27T06:47:25.416Z,75.60
2019-04-27T06:49:52.343Z,77.80
2019-04-27T06:52:19.293Z,76.60
2019-04-27T06:54:46.217Z,76.40
2019-04-27T06:57:13.159Z,77.60
2019-04-27T06:59:40.408Z,76.20
2019-04-27T07:02:08.700Z,76.60
2019-04-27T07:04:34.279Z,77.50
2019-04-27T07:07:01.748Z,76.70
2019-04-27T07:09:29.490Z,77.00
2019-04-27T07:11:55.067Z,77.40
2019-04-27T07:14:22.308Z,77.50
2019-04-27T07:16:50.705Z,79.10
2019-04-27T07:19:16.152Z,78.30
2019-04-27T07:21:43.111Z,76.10
2019-04-27T07:24:10.008Z,73.50
2019-04-27T07:26:38.884Z,74.30
2019-04-27T07:29:03.896Z,73.90
2019-04-27T07:31:31.835Z,72.30
2019-04-27T07:33:59.404Z,72.00
2019-04-27T07:36:24.699Z,70.80
2019-04-27T07:38:52.416Z,70.80
2019-04-27T07:41:19.471Z,69.40
2019-04-27T07:43:51.364Z,68.20
2019-04-27T07:46:18.562Z,66.50
2019-04-27T07:48:45.273Z,67.90
2019-04-27T07:51:12.232Z,66.20
2019-04-27T07:53:39.152Z,64.50
2019-04-27T07:56:06.133Z,65.70
2019-04-27T07:58:33.083Z,66.30
2019-04-27T08:01:01.315Z,66.20
2019-04-27T08:03:29.143Z,66.70
2019-04-27T08:05:55.184Z,64.90
2019-04-27T08:08:22.116Z,66.20
2019-04-27T08:10:50.219Z,66.50
2019-04-27T08:13:16.008Z,66.90
2019-04-27T08:15:42.952Z,66.90
2019-04-27T08:18:09.892Z,67.10
2019-04-27T08:20:36.845Z,67.20
2019-04-27T08:23:03.767Z,66.20
2019-04-27T08:25:30.899Z,66.00
2019-04-27T08:28:06.576Z,66.10
2019-04-27T08:30:39.455Z,65.60
2019-04-27T08:33:09.122Z,65.20
2019-04-27T08:35:34.693Z,63.60
2019-04-27T08:38:01.608Z,60.90
2019-04-27T08:40:29.252Z,59.90
2019-04-27T08:42:55.768Z,59.80
2019-04-27T08:45:22.403Z,61.20
2019-04-27T08:47:49.958Z,61.30
2019-04-27T08:50:16.275Z,62.10
2019-04-27T08:52:43.222Z,61.90
2019-04-27T08:55:10.154Z,61.20
2019-04-27T08:57:38.659Z,59.90
2019-04-27T09:00:04.976Z,60.30
2019-04-27T09:02:41.648Z,61.40
2019-04-27T09:04:59.610Z,63.40
2019-04-27T09:07:50.691Z,63.70
2019-04-27T09:10:38.791Z,64.80
2019-04-27T09:13:11.321Z,67.00
2019-04-27T09:15:43.567Z,67.30
2019-04-27T09:18:10.623Z,65.50
2019-04-27T09:20:40.458Z,66.10
2019-04-27T09:23:07.647Z,66.50
2019-04-27T09:25:34.569Z,66.60
2019-04-27T09:28:01.503Z,67.20
2019-04-27T09:30:29.783Z,67.90
2019-04-27T09:32:55.343Z,69.10
2019-04-27T09:35:22.312Z,70.20
2019-04-27T09:37:49.247Z,73.70
2019-04-27T09:40:17.157Z,75.20
2019-04-27T09:42:43.181Z,77.30
2019-04-27T09:45:10.112Z,75.80
2019-04-27T09:47:39.099Z,77.00
2019-04-27T09:50:05.761Z,78.40
2019-04-27T09:52:31.805Z,78.60
2019-04-27T09:54:58.736Z,78.80
2019-04-27T09:57:26.000Z,79.30
2019-04-27T09:59:52.699Z,79.50
2019-04-27T10:02:19.615Z,79.40
2019-04-27T10:04:46.725Z,79.90
2019-04-27T10:07:13.644Z,78.70
2019-04-27T10:09:40.596Z,79.60
2019-04-27T10:12:07.790Z,80.30
2019-04-27T10:14:34.464Z,81.60
2019-04-27T10:17:01.396Z,82.10
2019-04-27T10:19:32.802Z,86.40
2019-04-27T10:21:55.260Z,88.00
2019-04-27T10:24:22.175Z,87.40
2019-04-27T10:26:49.123Z,88.60
2019-04-27T10:29:16.224Z,87.20
2019-04-27T10:31:56.483Z,87.70
2019-04-27T10:34:22.296Z,86.00
2019-04-27T10:36:49.232Z,85.70
2019-04-27T10:39:17.056Z,86.10
2019-04-27T10:41:43.109Z,84.80
2019-04-27T10:44:10.124Z,85.40
2019-04-27T10:46:37.092Z,87.00
2019-04-27T10:49:05.896Z,87.80
2019-04-27T10:51:31.441Z,90.20
2019-04-27T10:53:58.376Z,90.50
2019-04-27T10:56:25.575Z,90.20
2019-04-27T10:58:52.233Z,88.10
2019-04-27T11:01:19.188Z,82.70
2019-04-27T11:03:57.741Z,82.60
2019-04-27T11:06:28.928Z,83.30
2019-04-27T11:08:56.158Z,83.00
2019-04-27T11:11:22.801Z,79.50
2019-04-27T11:13:49.731Z,80.00
2019-04-27T11:16:16.665Z,79.60
2019-04-27T11:18:43.596Z,79.40
2019-04-27T11:21:10.560Z,77.80
2019-04-27T11:23:37.532Z,77.50
2019-04-27T11:26:07.433Z,77.80
2019-04-27T11:28:31.392Z,77.20
2019-04-27T11:30:58.331Z,77.30
2019-04-27T11:33:26.382Z,77.80
2019-04-27T11:35:57.379Z,77.20
2019-04-27T11:38:24.323Z,76.40
2019-04-27T11:40:51.250Z,76.60
2019-04-27T11:43:18.187Z,76.50
2019-04-27T11:45:45.788Z,76.90
2019-04-27T11:48:12.082Z,76.10
2019-04-27T11:50:39.146Z,73.60
2019-04-27T11:53:06.334Z,73.30
2019-04-27T11:55:32.992Z,73.30
2019-04-27T11:57:59.976Z,73.30
2019-04-27T12:00:27.635Z,74.80
2019-04-27T12:02:53.836Z,71.60
2019-04-27T12:05:20.802Z,71.60
2019-04-27T12:07:48.074Z,71.30
2019-04-27T12:10:15.748Z,71.20
2019-04-27T12:12:42.596Z,71.20
2019-04-27T12:15:09.545Z,70.60
2019-04-27T12:17:36.470Z,69.90
2019-04-27T12:20:04.590Z,70.90
2019-04-27T12:22:31.532Z,71.10
2019-04-27T12:24:58.480Z,71.60
2019-04-27T12:27:37.580Z,71.80
2019-04-27T12:30:13.788Z,72.30
2019-04-27T12:32:40.744Z,72.50
2019-04-27T12:35:07.720Z,72.10
2019-04-27T12:37:35.714Z,71.50
2019-04-27T12:40:01.896Z,72.20
2019-04-27T12:42:28.811Z,71.90
2019-04-27T12:44:55.773Z,71.70
2019-04-27T12:47:22.707Z,70.10
2019-04-27T12:49:49.648Z,69.00
2019-04-27T12:52:16.618Z,69.50
2019-04-27T12:54:51.871Z,68.60
2019-04-27T12:57:26.362Z,68.10
2019-04-27T12:59:56.578Z,67.20
2019-04-27T13:02:24.156Z,66.80
2019-04-27T13:04:51.083Z,66.80
2019-04-27T13:07:18.013Z,65.80
2019-04-27T13:09:46.517Z,65.00
2019-04-27T13:12:13.446Z,66.10
2019-04-27T13:14:40.399Z,67.90
2019-04-27T13:17:07.330Z,67.80
2019-04-27T13:19:34.267Z,66.90
2019-04-27T13:22:01.212Z,66.70
2019-04-27T13:24:28.250Z,66.40
2019-04-27T13:26:55.936Z,67.30
2019-04-27T13:29:22.012Z,66.20
2019-04-27T13:31:48.940Z,66.00
2019-04-27T13:34:15.976Z,63.90
2019-04-27T13:36:42.785Z,65.90
2019-04-27T13:39:09.731Z,64.80
2019-04-27T13:41:36.663Z,63.90
2019-04-27T13:44:03.723Z,61.60
2019-04-27T13:46:52.296Z,60.40
2019-04-27T13:49:26.496Z,60.80
2019-04-27T13:51:57.509Z,61.10
2019-04-27T13:54:27.231Z,61.00
2019-04-27T13:56:50.699Z,62.60
2019-04-27T13:59:17.634Z,62.60
2019-04-27T14:01:44.552Z,63.20
2019-04-27T14:04:11.515Z,63.90
2019-04-27T14:06:38.437Z,64.80
2019-04-27T14:09:06.051Z,64.50
2019-04-27T14:11:33.289Z,64.80
2019-04-27T14:14:00.219Z,64.60
2019-04-27T14:16:28.991Z,65.10
2019-04-27T14:18:54.111Z,65.40
2019-04-27T14:21:21.218Z,65.70
2019-04-27T14:23:48.531Z,65.30
2019-04-27T14:26:15.146Z,66.80
2019-04-27T14:28:42.087Z,66.10
2019-04-27T14:31:09.065Z,66.20
2019-04-27T14:33:35.973Z,66.50
2019-04-27T14:36:02.937Z,66.50
2019-04-27T14:38:29.852Z,67.90
2019-04-27T14:40:56.810Z,67.60
2019-04-27T14:43:23.743Z,68.70
2019-04-27T14:45:50.651Z,67.20
2019-04-27T14:48:18.504Z,70.90
2019-04-27T14:50:44.538Z,71.60
2019-04-27T14:53:11.472Z,72.30
2019-04-27T14:55:38.838Z,71.20
2019-04-27T14:58:05.577Z,76.10
2019-04-27T15:00:32.510Z,82.70
2019-04-27T15:02:59.455Z,90.20
2019-04-27T15:05:26.386Z,92.00
2019-04-27T15:07:54.641Z,93.30
2019-04-27T15:10:20.268Z,94.10
2019-04-27T15:12:47.507Z,94.80
2019-04-27T15:15:14.437Z,94.60
2019-04-27T15:17:41.377Z,94.30
2019-04-27T15:20:10.804Z,94.50
2019-04-27T15:22:37.735Z,93.10
2019-04-27T15:36:38.520Z,92.00
2019-04-27T15:39:09.659Z,91.40
2019-04-27T15:41:39.688Z,90.70
2019-04-27T15:44:08.823Z,91.10
2019-04-27T15:46:34.794Z,90.70
2019-04-27T15:49:03.057Z,90.60
2019-04-27T15:51:28.328Z,90.60
2019-04-27T15:53:54.305Z,90.60
2019-04-27T15:56:21.828Z,90.50
2019-04-27T15:58:48.399Z,90.50
2019-04-27T16:01:15.367Z,91.20
2019-04-27T16:03:42.295Z,90.20
2019-04-27T16:06:11.920Z,90.30
2019-04-27T16:08:38.235Z,90.50
2019-04-27T16:11:03.151Z,91.00
2019-04-27T16:13:33.192Z,89.40
2019-04-27T16:15:58.435Z,84.20
2019-04-27T16:18:24.548Z,82.10
2019-04-27T16:20:51.171Z,82.50
2019-04-27T16:23:18.262Z,83.50
2019-04-27T16:25:48.561Z,82.20
2019-04-27T16:28:13.491Z,83.00
2019-04-27T16:30:39.209Z,81.00
2019-04-27T16:33:05.818Z,78.90
2019-04-27T16:35:32.747Z,77.50
2019-04-27T16:38:12.495Z,77.40
2019-04-27T16:40:39.408Z,78.70
2019-04-27T16:43:06.601Z,78.10
2019-04-27T16:45:33.547Z,77.90
2019-04-27T16:48:02.086Z,79.90
2019-04-27T16:50:28.877Z,80.20
2019-04-27T16:52:59.145Z,81.20
2019-04-27T16:55:21.410Z,80.40
2019-04-27T16:57:48.344Z,81.10
2019-04-27T17:00:16.029Z,79.00
2019-04-27T17:02:42.961Z,80.00
2019-04-27T17:05:09.888Z,80.10
2019-04-27T17:07:37.597Z,80.10
2019-04-27T17:10:03.876Z,78.60
2019-04-27T17:12:34.806Z,79.80
2019-04-27T17:15:05.856Z,77.40
2019-04-27T17:17:42.696Z,76.90
2019-04-27T17:20:05.725Z,73.60
2019-04-27T17:22:32.652Z,74.20
2019-04-27T17:24:59.568Z,74.60
2019-04-27T17:27:34.133Z,74.60
2019-04-27T17:30:01.788Z,75.20
2019-04-27T17:32:33.918Z,74.40
2019-04-27T17:35:05.052Z,74.70
2019-04-27T17:37:29.966Z,73.70
2019-04-27T17:39:58.069Z,73.40
2019-04-27T17:42:22.795Z,73.80
2019-04-27T17:44:49.035Z,74.20
2019-04-27T17:47:15.195Z,74.40
2019-04-27T17:49:42.124Z,75.20
2019-04-27T17:52:09.061Z,75.10
2019-04-27T17:54:36.016Z,72.40
2019-04-27T17:57:02.973Z,76.30
2019-04-27T17:59:29.900Z,78.70
2019-04-27T18:02:00.933Z,85.80
2019-04-27T18:04:23.771Z,90.10
2019-04-27T18:06:50.708Z,90.50
2019-04-27T18:09:18.808Z,90.80
2019-04-27T18:11:44.556Z,90.20
2019-04-27T18:14:14.537Z,90.70
2019-04-27T18:16:38.837Z,90.40
2019-04-27T18:19:28.182Z,90.30
2019-04-27T18:22:00.936Z,90.00
2019-04-27T18:24:26.620Z,90.20
2019-04-27T18:27:13.924Z,90.00
2019-04-27T18:29:40.873Z,90.50
2019-04-27T18:32:08.880Z,90.10
2019-04-27T18:34:34.717Z,90.10
2019-04-27T18:37:04.141Z,90.00
2019-04-27T18:39:28.580Z,90.00
2019-04-27T18:41:55.496Z,89.70
2019-04-27T18:44:23.969Z,88.90
2019-04-27T18:46:49.440Z,88.90
2019-04-27T18:49:27.259Z,88.30
2019-04-27T18:52:14.267Z,87.20
2019-04-27T18:54:42.199Z,86.00
2019-04-27T18:57:10.750Z,86.80
2019-04-27T18:59:35.074Z,86.70
2019-04-27T19:02:02.030Z,87.00
2019-04-27T19:04:29.001Z,88.90
2019-04-27T19:06:55.933Z,89.10
2019-04-27T19:09:22.909Z,90.00
2019-04-27T19:11:56.164Z,90.30
2019-04-27T19:14:16.789Z,91.10
2019-04-27T19:16:43.940Z,91.30
2019-04-27T19:19:10.878Z,91.50
2019-04-27T19:21:39.289Z,91.80
2019-04-27T19:24:04.737Z,91.90
2019-04-27T19:26:44.818Z,92.30
2019-04-27T19:29:16.367Z,92.20
2019-04-27T19:31:48.211Z,93.10
2019-04-27T19:34:13.680Z,92.90
2019-04-27T19:36:40.627Z,93.30
2019-04-27T19:39:08.757Z,93.30
2019-04-27T19:41:34.496Z,93.30
2019-04-27T19:44:01.445Z,93.90
2019-04-27T19:46:28.829Z,93.80
2019-04-27T19:48:55.545Z,94.30
2019-04-27T19:51:22.495Z,94.10
2019-04-27T19:53:49.424Z,93.80
2019-04-27T19:56:16.353Z,94.10
2019-04-27T19:58:46.419Z,94.40
2019-04-27T20:01:16.480Z,94.90
2019-04-27T20:03:48.263Z,94.50
2019-04-27T20:06:15.188Z,94.60
2019-04-27T20:08:43.153Z,93.70
2019-04-27T20:11:10.109Z,94.00
2019-04-27T20:13:37.086Z,93.60
2019-04-27T20:16:04.017Z,93.10
2019-04-27T20:18:32.790Z,93.10
2019-04-27T20:20:59.713Z,94.00
2019-04-27T20:23:26.639Z,93.70
2019-04-27T20:25:53.590Z,92.80
2019-04-27T20:28:20.687Z,93.00
2019-04-27T20:30:47.507Z,93.30
2019-04-27T20:33:14.452Z,92.90
2019-04-27T20:35:42.679Z,93.70
2019-04-27T20:38:08.313Z,94.10
2019-04-27T20:40:35.259Z,93.50
2019-04-27T20:43:02.210Z,93.70
2019-04-27T20:45:30.858Z,94.00
2019-04-27T20:47:56.073Z,94.00
2019-04-27T20:50:23.005Z,93.90
2019-04-27T20:52:56.553Z,93.80
2019-04-27T20:55:23.497Z,93.90
2019-04-27T20:58:01.029Z,94.00
2019-04-27T21:00:18.733Z,93.90
2019-04-27T21:02:51.957Z,93.40
2019-04-27T21:05:26.726Z,93.30
2019-04-27T21:07:55.625Z,93.10
2019-04-27T21:10:22.553Z,93.70
2019-04-27T21:12:49.481Z,93.70
2019-04-27T21:15:16.396Z,93.70
2019-04-27T21:17:43.316Z,93.10
2019-04-27T21:20:11.392Z,93.50
2019-04-27T21:22:37.459Z,94.00
2019-04-27T21:25:04.612Z,93.40
2019-04-27T21:27:31.980Z,93.10
2019-04-27T21:29:58.502Z,93.20
2019-04-27T21:32:25.417Z,92.90
2019-04-27T21:34:52.355Z,92.70
2019-04-27T21:37:19.274Z,92.20
2019-04-27T21:39:46.231Z,91.80
2019-04-27T21:42:13.173Z,92.30
2019-04-27T21:44:41.936Z,92.50
2019-04-27T21:47:07.055Z,92.30
2019-04-27T21:49:34.004Z,92.70
2019-04-27T21:52:02.093Z,92.90
2019-04-27T21:54:30.820Z,93.00
2019-04-27T21:56:56.001Z,92.90
2019-04-27T21:59:22.907Z,92.60
2019-04-27T22:01:51.640Z,92.70
2019-04-27T22:04:16.768Z,92.30
2019-04-27T22:06:43.684Z,92.00
2019-04-27T22:09:10.603Z,91.60
2019-04-27T22:11:37.611Z,91.70
2019-04-27T22:14:05.998Z,91.80
2019-04-27T22:16:31.603Z,91.90
2019-04-27T22:18:58.423Z,91.80
2019-04-27T22:21:25.524Z,91.60
2019-04-27T22:24:13.029Z,91.70
2019-04-27T22:26:41.544Z,91.50
2019-04-27T22:29:06.901Z,91.60
2019-04-27T22:31:33.829Z,91.80
2019-04-27T22:34:01.868Z,91.70
2019-04-27T22:36:27.678Z,92.20
2019-04-27T22:38:54.896Z,91.50
2019-04-27T22:41:28.802Z,91.40
2019-04-27T22:44:16.268Z,91.50
2019-04-27T22:46:44.632Z,91.60
2019-04-27T22:49:11.547Z,91.80
2019-04-27T22:51:38.484Z,91.70
2019-04-27T22:54:05.696Z,91.40
2019-04-27T22:56:32.623Z,91.50
2019-04-27T22:59:07.460Z,92.20
2019-04-27T23:01:42.649Z,91.90
2019-04-27T23:04:25.548Z,91.30
2019-04-27T23:06:52.480Z,92.20
2019-04-27T23:09:19.403Z,91.50
2019-04-27T23:11:46.349Z,91.00
2019-04-27T23:14:13.273Z,91.70
2019-04-27T23:16:42.115Z,91.40
2019-04-27T23:19:07.491Z,91.30
2019-04-27T23:21:37.155Z,90.90
2019-04-27T23:24:04.079Z,91.80
2019-04-27T23:26:31.326Z,92.00
2019-04-27T23:29:10.377Z,91.70
2019-04-27T23:31:31.922Z,91.20
2019-04-27T23:33:57.852Z,91.10
2019-04-27T23:36:24.776Z,90.80
2019-04-27T23:38:51.705Z,91.70
2019-04-27T23:41:18.637Z,92.20
2019-04-27T23:43:45.552Z,92.00
2019-04-27T23:46:12.464Z,91.90
2019-04-27T23:48:39.397Z,92.00
2019-04-27T23:51:16.538Z,92.00
2019-04-27T23:53:43.459Z,92.30
2019-04-27T23:56:10.375Z,92.00
2019-04-27T23:58:37.288Z,92.20
